Time;durP1;ratioP1;P1;durP2;ratioP2;P2;SDS_P1;SDS_P2;PMS_P1;PMS_P2;Temp;Humidity;BMP_temperature;BMP_pressure;BME280_temperature;BME280_humidity;BME280_pressure;Samples;Min_cycle;Max_cycle;Signal;HPM_P1;HPM_P2
2023/09/30 04:02:33;;;;;;;2.70;1.80;;;18.40;79.50;;;;;;6297711;22;20448;-76
2023/09/30 04:05:03;;;;;;;3.30;2.10;;;18.40;79.30;;;;;;6306891;22;20913;-76
2023/09/30 04:07:30;;;;;;;3.43;1.90;;;18.40;79.40;;;;;;6308114;22;20427;-75
2023/09/30 04:09:57;;;;;;;2.70;1.93;;;18.40;79.50;;;;;;6308775;22;20925;-75
2023/09/30 04:12:24;;;;;;;2.57;1.57;;;18.30;79.70;;;;;;6282966;22;20428;-75
2023/09/30 04:14:50;;;;;;;2.40;1.63;;;18.30;79.70;;;;;;6278395;22;20747;-74
2023/09/30 04:17:17;;;;;;;3.50;2.07;;;18.30;79.50;;;;;;6278117;22;20397;-76
2023/09/30 04:19:50;;;;;;;3.70;2.40;;;18.40;79.60;;;;;;6278083;22;20398;-76
2023/09/30 04:22:17;;;;;;;2.83;1.63;;;18.40;79.50;;;;;;6278077;22;20478;-75
2023/09/30 04:24:44;;;;;;;2.57;2.03;;;18.40;79.50;;;;;;6277631;22;20914;-76
2023/09/30 04:27:11;;;;;;;2.80;1.80;;;18.40;79.50;;;;;;6279272;22;20397;-76
2023/09/30 04:29:39;;;;;;;4.40;2.03;;;18.40;79.40;;;;;;6277989;22;20405;-76
2023/09/30 04:32:06;;;;;;;2.50;1.60;;;18.40;79.30;;;;;;6277875;22;20426;-75
2023/09/30 04:34:32;;;;;;;2.93;1.90;;;18.40;79.40;;;;;;6277921;22;20441;-76
2023/09/30 04:37:00;;;;;;;2.50;1.80;;;18.40;79.30;;;;;;6277924;22;20400;-76
2023/09/30 04:39:27;;;;;;;2.83;1.93;;;18.40;79.40;;;;;;6277503;22;20405;-76
2023/09/30 04:41:54;;;;;;;2.67;1.80;;;18.40;79.30;;;;;;6277775;22;20756;-73
2023/09/30 04:44:21;;;;;;;2.93;1.93;;;18.40;79.40;;;;;;6277824;22;20401;-73
2023/09/30 04:46:48;;;;;;;2.80;1.77;;;18.40;79.40;;;;;;6277792;22;20459;-73
2023/09/30 04:49:17;;;;;;;2.30;1.60;;;18.40;79.50;;;;;;6277709;22;20444;-73
2023/09/30 04:51:44;;;;;;;2.63;1.93;;;18.40;79.50;;;;;;6277678;22;20429;-73
2023/09/30 04:54:12;;;;;;;2.80;1.70;;;18.40;79.50;;;;;;6277722;22;20492;-73
2023/09/30 04:56:39;;;;;;;2.77;1.70;;;18.40;79.50;;;;;;6277766;22;20397;-76
2023/09/30 04:59:06;;;;;;;2.67;1.80;;;18.40;79.50;;;;;;6277662;22;20410;-76
2023/09/30 05:01:33;;;;;;;2.30;1.63;;;18.40;79.40;;;;;;6277310;22;20433;-76
2023/09/30 05:03:59;;;;;;;3.27;1.73;;;18.40;79.40;;;;;;6277315;22;20953;-76
2023/09/30 05:06:26;;;;;;;3.93;2.23;;;18.40;79.40;;;;;;6277603;22;20405;-76
2023/09/30 05:08:53;;;;;;;2.70;1.70;;;18.40;79.30;;;;;;6277496;22;20443;-76
2023/09/30 05:11:22;;;;;;;3.20;2.30;;;18.50;79.20;;;;;;6277498;22;20425;-76
2023/09/30 05:13:49;;;;;;;2.77;1.87;;;18.40;79.30;;;;;;6277214;22;20417;-76
2023/09/30 05:16:16;;;;;;;3.20;1.80;;;18.40;79.40;;;;;;6277536;22;20409;-76
2023/09/30 05:18:42;;;;;;;3.43;1.83;;;18.20;79.70;;;;;;6277082;22;20452;-76
2023/09/30 05:21:10;;;;;;;2.50;1.60;;;18.10;79.90;;;;;;6277429;22;20429;-76
2023/09/30 05:23:38;;;;;;;3.10;2.30;;;18.20;79.60;;;;;;6277487;22;20412;-76
2023/09/30 05:26:05;;;;;;;3.50;2.60;;;18.20;79.40;;;;;;6277456;22;20488;-76
2023/09/30 05:28:34;;;;;;;3.63;2.27;;;18.20;79.20;;;;;;6277327;22;20437;-76
2023/09/30 05:31:01;;;;;;;2.73;1.70;;;18.20;79.10;;;;;;6276936;22;21005;-76
2023/09/30 05:33:28;;;;;;;3.57;2.83;;;18.20;78.90;;;;;;6277346;22;20496;-76
2023/09/30 05:35:55;;;;;;;2.70;1.70;;;18.20;79.00;;;;;;6276957;22;20907;-76
2023/09/30 05:38:23;;;;;;;3.23;1.80;;;18.10;78.90;;;;;;6276970;22;20931;-76
2023/09/30 05:40:49;;;;;;;2.80;1.60;;;18.10;79.10;;;;;;6277201;22;20456;-76
2023/09/30 05:43:16;;;;;;;3.37;2.83;;;18.10;79.30;;;;;;6277231;22;20792;-76
2023/09/30 05:45:49;;;;;;;7.93;2.67;;;18.00;79.40;;;;;;6277222;22;20429;-76
2023/09/30 05:48:16;;;;;;;2.80;2.50;;;18.00;79.40;;;;;;6277204;22;20425;-75
2023/09/30 05:50:43;;;;;;;3.30;2.20;;;18.00;79.50;;;;;;6277079;22;20426;-76
2023/09/30 05:53:10;;;;;;;3.30;2.30;;;18.00;79.50;;;;;;6277243;22;20401;-76
2023/09/30 05:55:38;;;;;;;2.40;1.80;;;18.00;79.40;;;;;;6276826;22;20451;-76
2023/09/30 05:58:05;;;;;;;4.20;1.83;;;18.00;79.60;;;;;;6277101;22;20405;-76
2023/09/30 06:00:35;;;;;;;3.57;2.13;;;18.00;79.70;;;;;;6276909;22;20401;-76
2023/09/30 06:03:04;;;;;;;4.10;1.87;;;18.00;79.90;;;;;;6277159;22;20703;-76
2023/09/30 06:05:32;;;;;;;2.50;2.13;;;18.10;79.60;;;;;;6277027;22;20412;-76
2023/09/30 06:08:00;;;;;;;2.70;1.60;;;18.10;79.70;;;;;;6277017;22;20441;-76
2023/09/30 06:10:26;;;;;;;3.43;2.20;;;18.10;79.80;;;;;;6276483;22;20908;-76
2023/09/30 06:12:54;;;;;;;2.93;1.87;;;18.10;79.80;;;;;;6276598;22;20891;-76
2023/09/30 06:15:25;;;;;;;5.60;2.20;;;18.20;79.70;;;;;;6277018;22;20464;-76
2023/09/30 06:17:52;;;;;;;3.30;2.40;;;18.20;79.60;;;;;;6276913;22;20481;-76
2023/09/30 06:20:22;;;;;;;3.67;1.90;;;18.20;79.80;;;;;;6276913;22;20428;-76
2023/09/30 06:22:50;;;;;;;2.90;2.23;;;18.20;79.70;;;;;;6276604;22;20394;-76
2023/09/30 06:25:17;;;;;;;2.60;1.80;;;18.30;79.80;;;;;;6276892;22;20416;-76
2023/09/30 06:27:44;;;;;;;3.03;1.87;;;18.30;79.80;;;;;;6276744;22;20427;-76
2023/09/30 06:30:12;;;;;;;3.60;2.00;;;18.40;79.80;;;;;;6276474;22;20439;-76
2023/09/30 06:32:38;;;;;;;4.07;2.40;;;18.40;79.90;;;;;;6276638;22;20484;-76
2023/09/30 06:35:06;;;;;;;2.40;1.77;;;18.40;79.90;;;;;;6276402;22;20900;-76
2023/09/30 06:37:34;;;;;;;3.33;2.37;;;18.40;80.40;;;;;;6276812;22;20785;-75
2023/09/30 06:40:02;;;;;;;2.87;2.10;;;18.50;80.10;;;;;;6276765;22;20452;-76
2023/09/30 06:42:30;;;;;;;3.17;2.43;;;18.60;79.80;;;;;;6276407;22;20421;-76
2023/09/30 06:44:57;;;;;;;2.60;1.83;;;18.70;79.80;;;;;;6276798;22;20408;-76
2023/09/30 06:47:24;;;;;;;3.50;2.27;;;18.70;79.70;;;;;;6276765;22;20401;-76
2023/09/30 06:49:50;;;;;;;3.70;2.70;;;18.80;79.50;;;;;;6276556;22;20460;-73
2023/09/30 06:52:18;;;;;;;3.63;2.13;;;18.80;79.50;;;;;;6276538;22;20429;-73
2023/09/30 06:54:46;;;;;;;4.80;2.70;;;18.80;79.50;;;;;;6276621;22;20455;-73
2023/09/30 06:57:13;;;;;;;3.00;2.70;;;18.80;79.20;;;;;;6276636;22;20459;-73
2023/09/30 06:59:39;;;;;;;4.00;2.87;;;18.80;79.00;;;;;;6276612;22;20400;-73
2023/09/30 07:02:06;;;;;;;3.80;3.27;;;18.90;79.10;;;;;;6276041;22;20443;-73
2023/09/30 07:04:33;;;;;;;4.17;2.47;;;19.00;78.90;;;;;;6277201;22;20404;-74
2023/09/30 07:06:59;;;;;;;3.97;2.50;;;19.10;77.90;;;;;;6276560;22;20412;-73
2023/09/30 07:09:26;;;;;;;3.37;2.63;;;19.10;78.20;;;;;;6276431;22;20444;-74
2023/09/30 07:11:54;;;;;;;3.37;2.40;;;18.90;78.40;;;;;;6277479;22;20460;-73
2023/09/30 07:14:21;;;;;;;4.07;2.50;;;19.00;78.40;;;;;;6276551;22;20447;-74
2023/09/30 07:16:48;;;;;;;3.00;2.50;;;19.10;78.30;;;;;;6276541;22;20401;-73
2023/09/30 07:19:15;;;;;;;2.60;2.13;;;19.50;78.30;;;;;;6276109;22;20437;-73
2023/09/30 07:21:42;;;;;;;3.63;2.33;;;20.20;76.70;;;;;;6275960;22;20417;-74
2023/09/30 07:24:09;;;;;;;3.60;2.60;;;20.70;74.10;;;;;;6276471;22;20412;-73
2023/09/30 07:26:36;;;;;;;3.50;2.13;;;21.10;72.60;;;;;;6276474;22;20408;-73
2023/09/30 07:29:04;;;;;;;4.73;2.87;;;21.40;71.80;;;;;;6276426;22;20472;-73
2023/09/30 07:31:35;;;;;;;3.03;1.83;;;21.80;70.30;;;;;;6276343;22;20784;-74
2023/09/30 07:34:02;;;;;;;3.40;2.40;;;21.80;69.80;;;;;;6276455;22;20378;-74
2023/09/30 07:36:29;;;;;;;3.90;2.27;;;22.00;69.60;;;;;;6276362;22;20401;-74
2023/09/30 07:38:55;;;;;;;3.50;2.30;;;22.10;69.60;;;;;;6276450;22;20397;-74
2023/09/30 07:41:22;;;;;;;5.80;2.80;;;22.30;68.70;;;;;;6276383;22;20428;-74
2023/09/30 07:43:49;;;;;;;2.70;1.90;;;22.40;68.50;;;;;;6278391;22;20397;-73
2023/09/30 07:46:17;;;;;;;4.10;2.20;;;22.10;69.20;;;;;;6278423;22;20401;-74
2023/09/30 07:48:44;;;;;;;4.70;2.23;;;21.90;69.20;;;;;;6277915;22;21005;-74
2023/09/30 07:51:13;;;;;;;2.10;1.53;;;22.00;68.90;;;;;;6277895;22;20807;-73
2023/09/30 07:53:40;;;;;;;4.60;2.30;;;22.10;69.00;;;;;;6278335;22;20455;-74
2023/09/30 07:56:06;;;;;;;3.17;2.50;;;22.10;68.40;;;;;;6278403;22;20454;-74
2023/09/30 07:58:33;;;;;;;2.70;2.20;;;22.20;68.50;;;;;;6277932;22;20729;-74
2023/09/30 08:01:01;;;;;;;2.80;2.07;;;22.10;67.90;;;;;;6277507;22;20436;-74
2023/09/30 08:03:29;;;;;;;3.30;2.10;;;21.90;68.30;;;;;;6275994;22;20774;-74
2023/09/30 08:05:57;;;;;;;2.57;2.10;;;21.80;69.40;;;;;;6276301;22;20771;-74
2023/09/30 08:08:24;;;;;;;2.73;2.10;;;21.20;70.10;;;;;;6276145;22;20484;-74
2023/09/30 08:10:55;;;;;;;3.70;2.67;;;20.80;71.90;;;;;;6276213;22;20428;-74
2023/09/30 08:13:22;;;;;;;3.53;2.63;;;20.50;73.00;;;;;;6276339;22;20436;-74
2023/09/30 08:15:48;;;;;;;3.13;2.43;;;20.60;73.00;;;;;;6276313;22;20738;-74
2023/09/30 08:18:15;;;;;;;2.70;2.20;;;20.60;72.70;;;;;;6276263;22;20782;-75
2023/09/30 08:20:43;;;;;;;3.53;2.30;;;20.50;73.00;;;;;;6276192;22;20425;-75
2023/09/30 08:23:11;;;;;;;3.10;2.13;;;20.30;73.10;;;;;;6276305;22;20401;-75
2023/09/30 08:25:38;;;;;;;2.80;2.20;;;20.30;73.70;;;;;;6276222;22;20407;-76
2023/09/30 08:28:05;;;;;;;2.93;2.10;;;20.40;73.10;;;;;;6275869;22;20911;-75
2023/09/30 08:30:34;;;;;;;3.90;2.40;;;20.70;73.20;;;;;;6276026;22;20448;-75
2023/09/30 08:33:00;;;;;;;5.83;2.50;;;20.70;71.90;;;;;;6275790;22;20409;-75
2023/09/30 08:35:27;;;;;;;4.00;2.60;;;20.90;70.60;;;;;;6276144;22;20401;-75
2023/09/30 08:37:55;;;;;;;3.70;2.27;;;20.60;71.20;;;;;;6276144;22;20401;-75
2023/09/30 08:40:22;;;;;;;3.30;2.20;;;20.70;71.30;;;;;;6276087;22;20401;-75
2023/09/30 08:42:52;;;;;;;4.00;2.43;;;20.90;70.80;;;;;;6276118;22;20401;-75
2023/09/30 08:45:19;;;;;;;3.43;2.60;;;21.20;69.20;;;;;;6276205;22;20425;-73
2023/09/30 08:47:46;;;;;;;4.10;1.97;;;21.30;69.20;;;;;;6276090;22;20405;-74
2023/09/30 08:50:14;;;;;;;2.63;2.40;;;21.30;69.90;;;;;;6276089;22;20951;-73
2023/09/30 08:52:43;;;;;;;2.80;2.10;;;21.00;71.00;;;;;;6276056;22;20429;-74
2023/09/30 08:55:12;;;;;;;4.20;2.07;;;21.00;71.30;;;;;;6275557;22;20716;-73
2023/09/30 08:57:41;;;;;;;3.70;2.43;;;21.10;70.90;;;;;;6275812;22;20738;-74
2023/09/30 09:00:11;;;;;;;2.80;1.90;;;21.00;70.10;;;;;;6276084;22;20405;-74
2023/09/30 09:02:38;;;;;;;4.00;2.13;;;21.00;70.30;;;;;;6233034;22;1011024;-74
2023/09/30 09:05:06;;;;;;;2.73;2.17;;;20.90;70.70;;;;;;6277211;22;20641;-73
2023/09/30 09:07:33;;;;;;;3.07;2.53;;;20.30;71.80;;;;;;6277598;22;20560;-74
2023/09/30 09:10:07;;;;;;;3.60;2.30;;;20.20;73.10;;;;;;6277634;22;20480;-75
2023/09/30 09:12:38;;;;;;;3.07;2.40;;;20.20;71.30;;;;;;6277637;22;20429;-73
2023/09/30 09:15:07;;;;;;;2.93;2.43;;;20.20;70.90;;;;;;6277661;22;20480;-70
2023/09/30 09:17:44;;;;;;;3.87;2.27;;;20.20;71.40;;;;;;6277058;22;20416;-70
2023/09/30 09:20:14;;;;;;;4.60;2.43;;;20.20;72.30;;;;;;6277561;22;20393;-70
2023/09/30 09:22:42;;;;;;;3.47;2.30;;;20.10;73.50;;;;;;6277379;22;20422;-69
2023/09/30 09:25:09;;;;;;;4.20;2.20;;;20.20;73.10;;;;;;6277445;22;20406;-69
2023/09/30 09:27:38;;;;;;;3.03;2.30;;;20.40;72.50;;;;;;6277317;22;20397;-69
2023/09/30 09:30:18;;;;;;;3.43;2.40;;;20.50;72.60;;;;;;6276856;22;20779;-71
2023/09/30 09:33:02;;;;;;;4.07;2.83;;;20.30;72.20;;;;;;6277101;22;20470;-70
2023/09/30 09:35:30;;;;;;;4.10;3.03;;;20.30;72.70;;;;;;6277451;22;20420;-71
2023/09/30 09:37:59;;;;;;;3.40;2.47;;;20.40;72.90;;;;;;6277001;22;20728;-70
2023/09/30 09:40:27;;;;;;;4.10;2.80;;;20.40;72.40;;;;;;6276867;22;20813;-71
2023/09/30 09:42:56;;;;;;;5.37;2.50;;;20.40;72.70;;;;;;6277320;22;20491;-70
2023/09/30 09:45:24;;;;;;;2.70;2.10;;;20.70;72.90;;;;;;6277331;22;20432;-71
2023/09/30 09:47:51;;;;;;;3.70;3.20;;;21.20;71.70;;;;;;6277224;22;20405;-70
2023/09/30 09:50:19;;;;;;;3.87;3.07;;;21.40;70.90;;;;;;6277156;22;20433;-70
2023/09/30 09:52:48;;;;;;;3.20;2.60;;;21.60;70.10;;;;;;6277138;22;20512;-70
2023/09/30 09:55:16;;;;;;;3.30;2.40;;;21.80;69.90;;;;;;6277118;22;20401;-70
2023/09/30 09:57:44;;;;;;;3.20;2.60;;;21.50;70.20;;;;;;6277387;22;20403;-70
2023/09/30 10:00:16;;;;;;;5.00;2.93;;;21.30;71.20;;;;;;6276750;22;20762;-71
2023/09/30 10:02:43;;;;;;;3.17;2.33;;;21.20;71.60;;;;;;6276529;22;20970;-70
2023/09/30 10:05:11;;;;;;;3.47;2.83;;;21.20;70.20;;;;;;6276945;22;20427;-70
2023/09/30 10:07:42;;;;;;;3.90;2.80;;;21.20;70.10;;;;;;6277015;22;20401;-69
2023/09/30 10:10:15;;;;;;;3.40;2.93;;;21.20;70.20;;;;;;6276557;22;20428;-69
2023/09/30 10:12:42;;;;;;;3.53;2.80;;;21.40;69.90;;;;;;6276951;22;20461;-68
2023/09/30 10:15:41;;;;;;;3.37;2.63;;;21.10;70.00;;;;;;6276888;22;20492;-68
2023/09/30 10:18:09;;;;;;;4.50;3.63;;;21.10;70.30;;;;;;6277533;22;20409;-68
2023/09/30 10:20:37;;;;;;;4.20;3.07;;;20.80;69.70;;;;;;6276758;22;20401;-68
2023/09/30 10:23:20;;;;;;;4.47;3.37;;;20.50;70.30;;;;;;6276851;22;20405;-67
2023/09/30 10:25:49;;;;;;;3.90;3.17;;;20.40;70.60;;;;;;6276838;22;20400;-68
2023/09/30 10:28:35;;;;;;;3.73;3.20;;;20.60;71.00;;;;;;6276810;22;20401;-69
2023/09/30 10:31:15;;;;;;;4.20;3.17;;;20.30;69.40;;;;;;6276659;22;20448;-69
2023/09/30 10:34:20;;;;;;;4.33;3.10;;;20.60;70.50;;;;;;6276838;22;20720;-69
2023/09/30 10:36:47;;;;;;;3.33;3.03;;;20.80;69.80;;;;;;6276843;22;20381;-69
2023/09/30 10:39:14;;;;;;;4.37;3.37;;;21.00;68.20;;;;;;6276629;22;20404;-68
2023/09/30 10:41:50;;;;;;;4.10;2.83;;;20.80;69.60;;;;;;6276690;22;20414;-69
2023/09/30 10:44:34;;;;;;;4.53;3.20;;;20.80;68.70;;;;;;6276745;22;20479;-69
2023/09/30 10:47:38;;;;;;;3.90;3.50;;;21.00;68.50;;;;;;6276676;22;20393;-70
2023/09/30 10:50:25;;;;;;;3.50;2.50;;;21.20;68.00;;;;;;6276654;22;20754;-71
2023/09/30 10:52:54;;;;;;;3.60;2.83;;;21.20;67.10;;;;;;6276179;22;20791;-70
2023/09/30 10:55:20;;;;;;;3.67;3.03;;;21.20;66.90;;;;;;6276651;22;20405;-71
2023/09/30 10:57:51;;;;;;;4.70;3.50;;;21.10;65.60;;;;;;6276638;22;20401;-71
2023/09/30 11:00:19;;;;;;;4.70;3.93;;;21.20;66.00;;;;;;6276609;22;20382;-72
2023/09/30 11:02:52;;;;;;;4.70;3.77;;;21.00;67.10;;;;;;6276288;22;20437;-72
2023/09/30 11:05:20;;;;;;;4.20;2.87;;;21.20;66.90;;;;;;6276576;22;20382;-73
2023/09/30 11:07:50;;;;;;;3.63;2.97;;;21.30;66.10;;;;;;6276583;22;20412;-73
2023/09/30 11:10:18;;;;;;;5.00;3.40;;;21.40;66.30;;;;;;6276810;22;20425;-73
2023/09/30 11:12:55;;;;;;;4.03;3.13;;;21.50;65.30;;;;;;6276460;22;20428;-73
2023/09/30 11:15:22;;;;;;;3.40;3.10;;;21.70;65.10;;;;;;6276539;22;20390;-73
2023/09/30 11:17:48;;;;;;;4.47;3.27;;;21.80;65.70;;;;;;6278643;22;20729;-73
2023/09/30 11:20:17;;;;;;;4.20;2.80;;;21.90;66.30;;;;;;6278554;22;20400;-73
2023/09/30 11:22:44;;;;;;;3.90;2.53;;;22.10;65.50;;;;;;6278508;22;20444;-73
2023/09/30 11:25:17;;;;;;;3.70;2.50;;;22.30;64.30;;;;;;6278573;22;20419;-73
2023/09/30 11:27:44;;;;;;;3.20;2.40;;;22.40;64.30;;;;;;6278610;22;20420;-73
2023/09/30 11:30:12;;;;;;;3.10;2.57;;;22.60;63.70;;;;;;6278420;22;20441;-73
2023/09/30 11:32:39;;;;;;;3.63;2.90;;;22.80;64.00;;;;;;6278434;22;20429;-74
2023/09/30 11:35:10;;;;;;;3.37;2.80;;;22.50;63.20;;;;;;6278468;22;20398;-73
2023/09/30 11:37:38;;;;;;;3.60;2.60;;;22.60;63.80;;;;;;6278531;22;20406;-73
2023/09/30 11:40:15;;;;;;;3.53;3.17;;;22.60;63.30;;;;;;6278433;22;20397;-73
2023/09/30 11:42:42;;;;;;;3.60;2.90;;;22.70;62.80;;;;;;6278287;22;20429;-73
2023/09/30 11:45:22;;;;;;;3.10;2.80;;;22.60;62.40;;;;;;6278430;22;20401;-73
2023/09/30 11:47:49;;;;;;;3.60;2.57;;;22.70;63.60;;;;;;6278025;22;20400;-74
2023/09/30 11:50:16;;;;;;;4.93;3.23;;;22.70;62.70;;;;;;6278186;22;20519;-74
2023/09/30 11:52:47;;;;;;;3.13;2.60;;;22.80;62.80;;;;;;6278268;22;20432;-73
2023/09/30 11:55:16;;;;;;;3.80;3.07;;;22.90;62.40;;;;;;6278344;22;20703;-74
2023/09/30 11:57:43;;;;;;;3.97;3.43;;;22.90;60.40;;;;;;6278326;22;20401;-74
2023/09/30 12:00:13;;;;;;;3.37;2.70;;;22.90;61.00;;;;;;6277887;22;20947;-75
2023/09/30 12:02:40;;;;;;;4.10;3.50;;;22.90;59.90;;;;;;6277809;22;20986;-74
2023/09/30 12:05:11;;;;;;;3.33;2.80;;;22.90;60.10;;;;;;6278225;22;20398;-75
2023/09/30 12:07:38;;;;;;;4.50;3.10;;;23.00;60.20;;;;;;6278230;22;20386;-75
2023/09/30 12:10:06;;;;;;;4.60;3.40;;;23.00;60.00;;;;;;6278084;22;20444;-74
2023/09/30 12:12:33;;;;;;;4.80;3.13;;;22.70;57.60;;;;;;6279245;22;20508;-75
2023/09/30 12:15:00;;;;;;;5.37;3.30;;;22.60;59.80;;;;;;6278115;22;20409;-75
2023/09/30 12:17:27;;;;;;;3.53;2.93;;;22.60;59.70;;;;;;6278088;22;20397;-75
2023/09/30 12:19:53;;;;;;;4.23;3.20;;;22.50;60.20;;;;;;6278003;22;20397;-74
2023/09/30 12:22:20;;;;;;;4.20;3.00;;;22.30;60.50;;;;;;6277939;22;20425;-74
2023/09/30 12:24:47;;;;;;;4.30;3.27;;;22.20;61.90;;;;;;6278514;22;20404;-74
2023/09/30 12:27:17;;;;;;;3.77;3.03;;;22.30;61.80;;;;;;6278595;22;20401;-73
2023/09/30 12:29:44;;;;;;;3.70;2.70;;;22.40;62.40;;;;;;6277907;22;20756;-74
2023/09/30 12:32:10;;;;;;;4.00;2.83;;;22.40;61.90;;;;;;6277779;22;20951;-75
2023/09/30 12:34:37;;;;;;;4.10;2.93;;;22.60;60.50;;;;;;6277790;22;20397;-74
2023/09/30 12:37:04;;;;;;;3.87;3.17;;;22.40;60.20;;;;;;6277833;22;20405;-74
2023/09/30 12:39:33;;;;;;;4.27;3.03;;;22.50;59.40;;;;;;6277951;22;20404;-74
2023/09/30 12:41:59;;;;;;;3.93;2.60;;;22.60;61.20;;;;;;6277833;22;20433;-75
2023/09/30 12:44:27;;;;;;;3.87;3.40;;;22.80;61.50;;;;;;6277944;22;20402;-78
2023/09/30 12:46:54;;;;;;;3.90;3.03;;;22.80;60.00;;;;;;6278496;22;20413;-78
2023/09/30 12:49:21;;;;;;;3.67;3.10;;;22.50;61.30;;;;;;6277932;22;20412;-73
2023/09/30 12:51:48;;;;;;;4.70;2.90;;;22.70;61.50;;;;;;6277619;22;20468;-73
2023/09/30 12:54:18;;;;;;;4.63;3.50;;;22.80;60.30;;;;;;6277681;22;20405;-72
2023/09/30 12:56:45;;;;;;;3.37;2.63;;;22.80;60.90;;;;;;6277689;22;20456;-74
2023/09/30 12:59:12;;;;;;;5.03;3.20;;;23.00;60.90;;;;;;6277573;22;20781;-71
2023/09/30 13:01:40;;;;;;;4.20;3.13;;;23.00;59.50;;;;;;6277441;22;20947;-72
2023/09/30 13:04:07;;;;;;;4.20;2.50;;;23.20;60.40;;;;;;6277378;22;20701;-72
2023/09/30 13:06:35;;;;;;;3.70;2.33;;;23.80;59.70;;;;;;6277280;22;20995;-75
2023/09/30 13:09:03;;;;;;;3.53;2.33;;;24.30;59.20;;;;;;6277620;22;20405;-75
2023/09/30 13:11:30;;;;;;;3.10;2.37;;;24.80;57.60;;;;;;6276966;22;20518;-75
2023/09/30 13:13:57;;;;;;;4.07;3.30;;;24.90;55.70;;;;;;6277552;22;20405;-77
2023/09/30 13:16:24;;;;;;;3.70;3.20;;;25.00;56.00;;;;;;6277268;22;20911;-77
2023/09/30 13:18:53;;;;;;;3.30;2.77;;;25.30;54.70;;;;;;6278043;22;20892;-76
2023/09/30 13:21:20;;;;;;;3.50;2.60;;;25.40;53.90;;;;;;6280409;22;20919;-78
2023/09/30 13:23:47;;;;;;;3.63;3.13;;;25.40;54.40;;;;;;6278430;22;20505;-75
2023/09/30 13:26:13;;;;;;;3.20;2.27;;;25.20;54.40;;;;;;6277518;22;20401;-73
2023/09/30 13:28:40;;;;;;;4.60;3.60;;;25.20;54.90;;;;;;6277562;22;20401;-72
2023/09/30 13:31:07;;;;;;;4.00;3.60;;;25.20;53.90;;;;;;6276933;22;20845;-74
2023/09/30 13:33:33;;;;;;;3.93;2.80;;;25.40;54.30;;;;;;6277571;22;20401;-72
2023/09/30 13:36:02;;;;;;;4.30;3.00;;;25.60;54.40;;;;;;6277283;22;20892;-74
2023/09/30 13:38:29;;;;;;;2.50;2.23;;;25.60;53.10;;;;;;6277124;22;20754;-75
2023/09/30 13:40:56;;;;;;;3.87;2.53;;;25.80;54.70;;;;;;6276997;22;20421;-74
2023/09/30 13:43:22;;;;;;;2.83;2.40;;;26.40;52.20;;;;;;6276992;22;20463;-75
2023/09/30 13:45:50;;;;;;;3.10;2.37;;;26.80;51.50;;;;;;6277350;22;20404;-75
2023/09/30 13:48:17;;;;;;;3.20;2.80;;;26.60;51.80;;;;;;6277344;22;20778;-75
2023/09/30 13:50:43;;;;;;;3.97;2.80;;;26.30;52.60;;;;;;6277165;22;20449;-75
2023/09/30 13:53:11;;;;;;;3.77;2.67;;;26.60;52.10;;;;;;6277426;22;20397;-75
2023/09/30 13:55:39;;;;;;;2.67;2.43;;;27.00;50.80;;;;;;6277307;22;20405;-74
2023/09/30 13:58:05;;;;;;;3.87;3.00;;;27.80;49.70;;;;;;6277244;22;20448;-75
2023/09/30 14:00:32;;;;;;;3.50;2.53;;;28.70;49.00;;;;;;6277031;22;20455;-75
2023/09/30 14:03:01;;;;;;;3.20;2.70;;;29.60;45.80;;;;;;6277212;22;20397;-75
2023/09/30 14:05:27;;;;;;;3.20;2.50;;;29.40;45.60;;;;;;6277155;22;20409;-75
2023/09/30 14:07:54;;;;;;;3.70;2.67;;;29.50;45.90;;;;;;6277102;22;20447;-75
2023/09/30 14:10:22;;;;;;;4.20;3.27;;;28.90;46.70;;;;;;6277068;22;20467;-75
2023/09/30 14:12:49;;;;;;;3.13;2.70;;;28.60;47.40;;;;;;6277070;22;20424;-75
2023/09/30 14:15:16;;;;;;;3.40;2.60;;;28.10;49.00;;;;;;6277060;22;20711;-75
2023/09/30 14:17:44;;;;;;;3.57;2.83;;;27.30;49.70;;;;;;6277155;22;20398;-75
2023/09/30 14:20:13;;;;;;;3.40;3.00;;;27.00;51.30;;;;;;6277170;22;20401;-74
2023/09/30 14:22:39;;;;;;;3.33;2.50;;;26.90;52.20;;;;;;6276889;22;20464;-75
2023/09/30 14:25:07;;;;;;;3.83;2.90;;;26.60;52.20;;;;;;6276924;22;20404;-75
2023/09/30 14:27:35;;;;;;;3.37;2.83;;;26.10;53.30;;;;;;6277076;22;20412;-75
2023/09/30 14:30:02;;;;;;;3.93;2.63;;;25.80;53.60;;;;;;6276580;22;20397;-75
2023/09/30 14:32:29;;;;;;;3.30;2.50;;;25.40;54.10;;;;;;6276819;22;20514;-75
2023/09/30 14:34:57;;;;;;;3.40;2.60;;;25.00;55.90;;;;;;6277111;22;20919;-75
2023/09/30 14:37:24;;;;;;;3.90;2.93;;;24.70;55.80;;;;;;6277239;22;20405;-75
2023/09/30 14:39:51;;;;;;;3.60;2.43;;;24.70;56.70;;;;;;6276597;22;20409;-74
2023/09/30 14:42:17;;;;;;;4.77;3.13;;;24.40;56.40;;;;;;6276547;22;20418;-75
2023/09/30 14:44:45;;;;;;;3.60;2.70;;;24.30;56.80;;;;;;6277184;22;20397;-74
2023/09/30 14:47:12;;;;;;;4.73;2.77;;;24.10;57.20;;;;;;6277381;22;20420;-75
2023/09/30 14:49:39;;;;;;;3.43;2.73;;;24.00;58.40;;;;;;6277665;22;20404;-75
2023/09/30 14:52:06;;;;;;;2.97;2.33;;;24.00;58.30;;;;;;6276288;22;20445;-75
2023/09/30 14:54:32;;;;;;;4.27;3.50;;;24.20;57.00;;;;;;6276303;22;20397;-75
2023/09/30 14:56:59;;;;;;;4.10;2.70;;;24.10;57.40;;;;;;6276895;22;20401;-75
2023/09/30 14:59:26;;;;;;;3.93;3.10;;;24.20;57.00;;;;;;6276306;22;20757;-75
2023/09/30 15:01:54;;;;;;;3.40;2.50;;;24.10;57.10;;;;;;6276302;22;20429;-75
2023/09/30 15:04:20;;;;;;;3.40;3.00;;;24.20;57.60;;;;;;6276766;22;20412;-75
2023/09/30 15:06:47;;;;;;;3.97;3.00;;;24.60;57.60;;;;;;6276754;22;20738;-75
2023/09/30 15:09:14;;;;;;;3.27;2.70;;;25.00;56.40;;;;;;6276814;22;20463;-75
2023/09/30 15:11:41;;;;;;;4.67;3.10;;;25.20;55.30;;;;;;6276511;22;20463;-74
2023/09/30 15:14:08;;;;;;;4.00;3.07;;;25.20;55.00;;;;;;6277594;22;20425;-75
2023/09/30 15:16:35;;;;;;;3.40;2.93;;;25.10;55.40;;;;;;6276719;22;20397;-75
2023/09/30 15:19:04;;;;;;;4.70;3.37;;;24.90;56.00;;;;;;6276763;22;20397;-75
2023/09/30 15:21:31;;;;;;;3.40;3.10;;;24.70;56.00;;;;;;6276408;22;20428;-75
2023/09/30 15:23:59;;;;;;;4.00;2.83;;;24.40;56.50;;;;;;6276725;22;20451;-75
2023/09/30 15:26:26;;;;;;;3.93;3.30;;;24.10;56.70;;;;;;6276517;22;20409;-74
2023/09/30 15:28:53;;;;;;;3.30;2.83;;;24.00;57.50;;;;;;6276466;22;20401;-74
2023/09/30 15:31:20;;;;;;;4.17;2.70;;;23.80;58.30;;;;;;6276341;22;20445;-75
2023/09/30 15:33:46;;;;;;;3.40;2.40;;;23.60;58.70;;;;;;6276485;22;20402;-74
2023/09/30 15:36:17;;;;;;;3.53;2.60;;;23.50;59.10;;;;;;6276470;22;20409;-74
2023/09/30 15:38:45;;;;;;;3.80;2.47;;;23.40;59.90;;;;;;6277314;22;20389;-75
2023/09/30 15:41:13;;;;;;;3.70;3.07;;;23.30;59.90;;;;;;6276185;22;20946;-74
2023/09/30 15:43:40;;;;;;;3.40;2.80;;;23.20;59.60;;;;;;6276553;22;20409;-75
2023/09/30 15:46:09;;;;;;;3.80;2.33;;;22.90;60.20;;;;;;6276478;22;20451;-75
2023/09/30 15:48:35;;;;;;;3.57;2.53;;;22.80;60.60;;;;;;6276455;22;20720;-75
2023/09/30 15:51:02;;;;;;;4.53;3.27;;;22.80;60.60;;;;;;6276298;22;20463;-75
2023/09/30 15:53:33;;;;;;;4.67;3.30;;;22.80;61.00;;;;;;6276365;22;20404;-75
2023/09/30 15:56:00;;;;;;;3.70;2.80;;;22.70;61.00;;;;;;6276390;22;20447;-74
2023/09/30 15:58:26;;;;;;;6.60;2.90;;;22.60;61.30;;;;;;6276436;22;20397;-75
2023/09/30 16:00:53;;;;;;;3.43;2.77;;;22.70;61.50;;;;;;6276043;22;20436;-75
2023/09/30 16:03:20;;;;;;;3.80;2.80;;;22.60;61.80;;;;;;6277162;22;20385;-75
2023/09/30 16:05:47;;;;;;;5.53;3.37;;;22.60;61.60;;;;;;6278289;22;20406;-75
2023/09/30 16:08:13;;;;;;;3.40;2.73;;;22.60;61.50;;;;;;6278291;22;20405;-75
2023/09/30 16:10:41;;;;;;;3.80;2.50;;;22.60;61.90;;;;;;6278364;22;20397;-75
2023/09/30 16:13:09;;;;;;;3.80;2.70;;;22.50;61.80;;;;;;6278265;22;20738;-75
2023/09/30 16:15:40;;;;;;;4.80;3.30;;;22.30;62.10;;;;;;6277948;22;20896;-75
2023/09/30 16:18:06;;;;;;;3.80;3.00;;;22.30;61.90;;;;;;6300251;22;20487;-72
2023/09/30 16:20:33;;;;;;;3.33;2.60;;;22.30;61.60;;;;;;6309086;22;20407;-72
2023/09/30 16:23:00;;;;;;;3.07;2.17;;;22.40;61.80;;;;;;6309073;22;20750;-73
2023/09/30 16:25:27;;;;;;;5.17;2.67;;;22.30;61.90;;;;;;6308691;22;20450;-72
2023/09/30 16:27:55;;;;;;;3.50;2.80;;;22.10;62.10;;;;;;6288333;22;20417;-73
2023/09/30 16:30:22;;;;;;;3.90;2.50;;;22.10;62.00;;;;;;6278022;22;20408;-72
2023/09/30 16:32:48;;;;;;;3.07;2.27;;;22.10;61.90;;;;;;6277566;22;20825;-72
2023/09/30 16:35:15;;;;;;;10.50;7.80;;;22.00;62.40;;;;;;6278037;22;20397;-72
2023/09/30 16:37:42;;;;;;;10.00;9.10;;;22.00;62.30;;;;;;6277932;22;20424;-73
2023/09/30 16:40:10;;;;;;;5.30;4.53;;;22.00;62.40;;;;;;6277640;22;20872;-72
2023/09/30 16:42:37;;;;;;;5.90;5.40;;;22.10;63.40;;;;;;6277972;22;20393;-72
2023/09/30 16:45:06;;;;;;;4.27;3.43;;;22.10;63.00;;;;;;6277913;22;20406;-72
2023/09/30 16:47:33;;;;;;;5.10;3.50;;;22.00;62.60;;;;;;6277762;22;20428;-72
2023/09/30 16:50:00;;;;;;;3.30;2.73;;;22.00;62.80;;;;;;6277875;22;20429;-73
2023/09/30 16:52:27;;;;;;;3.70;3.17;;;21.80;62.70;;;;;;6277826;22;20464;-72